Time;durP1;ratioP1;P1;durP2;ratioP2;P2;SDS_P1;SDS_P2;PMS_P1;PMS_P2;Temp;Humidity;BMP_temperature;BMP_pressure;BME280_temperature;BME280_humidity;BME280_pressure;Samples;Min_cycle;Max_cycle;Signal;HPM_P1;HPM_P2
2021/07/08 00:00:44;;;;;;;;;;;;;;;25.70;45.48;100634.13;3428285;28;21503;-72
2021/07/08 00:02:24;;;;;;;;;;;;;;;25.68;45.15;100629.75;3428256;28;19926;-72
2021/07/08 00:04:05;;;;;;;;;;;;;;;25.69;45.49;100636.06;3429019;28;19953;-73
2021/07/08 00:05:45;;;;;;;;;;;;;;;25.67;45.53;100636.31;3429150;28;19961;-73
2021/07/08 00:07:26;;;;;;;;;;;;;;;25.64;45.51;100639.59;3427792;28;19926;-72
2021/07/08 00:09:07;;;;;;;;;;;;;;;25.62;45.53;100633.56;3428802;28;19926;-71
2021/07/08 00:10:51;;;;;;;;;;;;;;;25.59;45.44;100636.84;3428729;28;19965;-72
2021/07/08 00:12:31;;;;;;;;;;;;;;;25.59;45.33;100641.50;3428725;28;20429;-73
2021/07/08 00:14:12;;;;;;;;;;;;;;;25.57;45.51;100638.22;3428347;28;19961;-73
2021/07/08 00:15:53;;;;;;;;;;;;;;;25.55;45.58;100635.75;3428502;28;19996;-73
2021/07/08 00:17:33;;;;;;;;;;;;;;;25.56;45.71;100645.59;3427830;28;19926;-74
2021/07/08 00:19:14;;;;;;;;;;;;;;;25.56;45.60;100640.13;3428801;28;19933;-74
2021/07/08 00:20:55;;;;;;;;;;;;;;;25.57;45.81;100644.50;3427983;28;19922;-72
2021/07/08 00:22:35;;;;;;;;;;;;;;;25.58;45.67;100648.03;3428944;28;19926;-72
2021/07/08 00:24:16;;;;;;;;;;;;;;;25.57;46.00;100643.69;3428524;28;19929;-74
2021/07/08 00:25:57;;;;;;;;;;;;;;;25.56;45.90;100645.59;3428303;28;19933;-74
2021/07/08 00:27:38;;;;;;;;;;;;;;;25.53;45.88;100645.28;3428847;28;19922;-73
2021/07/08 00:29:18;;;;;;;;;;;;;;;25.48;45.72;100648.00;3428860;28;20417;-74
2021/07/08 00:30:59;;;;;;;;;;;;;;;25.41;45.48;100646.38;3428518;28;19958;-73
2021/07/08 00:32:42;;;;;;;;;;;;;;;25.34;45.63;100648.53;3428677;28;19926;-73
2021/07/08 00:34:23;;;;;;;;;;;;;;;25.28;45.54;100649.63;3427088;28;20372;-74
2021/07/08 00:36:04;;;;;;;;;;;;;;;25.22;45.54;100648.81;3428610;28;19929;-73
2021/07/08 00:37:44;;;;;;;;;;;;;;;25.17;45.57;100656.97;3428598;28;20379;-73
2021/07/08 00:39:25;;;;;;;;;;;;;;;25.13;45.51;100655.81;3427538;28;19926;-73
2021/07/08 00:41:05;;;;;;;;;;;;;;;25.10;45.42;100656.34;3425022;28;20351;-74
2021/07/08 00:42:46;;;;;;;;;;;;;;;25.07;45.45;100651.44;3428587;28;19973;-75
2021/07/08 00:44:27;;;;;;;;;;;;;;;25.05;45.54;100660.97;3428613;28;20381;-76
2021/07/08 00:46:07;;;;;;;;;;;;;;;25.01;45.57;100663.41;3427983;28;19935;-75
2021/07/08 00:47:48;;;;;;;;;;;;;;;24.98;45.51;100663.94;3428214;28;20025;-76
2021/07/08 00:49:28;;;;;;;;;;;;;;;24.96;45.56;100663.38;3428446;28;19926;-75
2021/07/08 00:51:09;;;;;;;;;;;;;;;24.93;45.52;100666.66;3427913;28;20302;-75
2021/07/08 00:52:49;;;;;;;;;;;;;;;24.90;45.51;100662.53;3428318;28;19926;-75
2021/07/08 00:54:30;;;;;;;;;;;;;;;24.88;45.26;100666.63;3428632;28;20453;-75
2021/07/08 00:56:10;;;;;;;;;;;;;;;24.85;45.55;100661.72;3428675;28;19957;-75
2021/07/08 00:57:54;;;;;;;;;;;;;;;24.82;45.43;100660.34;3427056;28;19964;-75
2021/07/08 00:59:44;;;;;;;;;;;;;;;24.79;45.54;100667.13;3428301;28;19926;-75
2021/07/08 01:01:25;;;;;;;;;;;;;;;24.77;45.46;100671.22;3428268;28;19933;-74
2021/07/08 01:03:08;;;;;;;;;;;;;;;24.75;45.52;100671.47;3428426;28;19926;-75
2021/07/08 01:04:49;;;;;;;;;;;;;;;24.72;45.47;100674.72;3427580;28;19926;-75
2021/07/08 01:06:30;;;;;;;;;;;;;;;24.72;45.52;100679.38;3414487;28;20316;-75
2021/07/08 01:08:11;;;;;;;;;;;;;;;24.68;45.47;100676.34;3414838;28;19981;-75
2021/07/08 01:09:52;;;;;;;;;;;;;;;24.65;45.45;100676.88;3415326;28;19934;-75
2021/07/08 01:11:32;;;;;;;;;;;;;;;24.62;45.60;100669.22;3414442;29;19918;-74
2021/07/08 01:13:13;;;;;;;;;;;;;;;24.60;45.63;100668.66;3415054;28;19926;-75
2021/07/08 01:14:53;;;;;;;;;;;;;;;24.58;45.26;100676.28;3415278;28;19918;-74
2021/07/08 01:16:34;;;;;;;;;;;;;;;24.56;45.56;100667.56;3415354;28;20025;-74
2021/07/08 01:18:15;;;;;;;;;;;;;;;24.54;45.41;100669.72;3416507;28;19926;-75
2021/07/08 01:19:55;;;;;;;;;;;;;;;24.50;45.64;100672.16;3401124;29;19934;-74
2021/07/08 01:21:36;;;;;;;;;;;;;;;24.50;45.48;100679.50;3401983;29;19926;-75
2021/07/08 01:23:16;;;;;;;;;;;;;;;24.48;45.34;100681.69;3403485;28;20067;-75
2021/07/08 01:24:57;;;;;;;;;;;;;;;24.45;45.58;100682.22;3428269;28;19933;-74
2021/07/08 01:26:38;;;;;;;;;;;;;;;24.42;45.42;100683.53;3428504;28;19926;-74
2021/07/08 01:28:18;;;;;;;;;;;;;;;24.41;45.33;100692.78;3428347;28;19926;-73
2021/07/08 01:29:59;;;;;;;;;;;;;;;24.39;45.42;100689.47;3413815;28;20409;-75
2021/07/08 01:31:39;;;;;;;;;;;;;;;24.37;45.54;100689.75;3425354;28;20032;-75
2021/07/08 01:33:20;;;;;;;;;;;;;;;24.36;45.65;100698.19;3428443;28;19926;-75
2021/07/08 01:35:01;;;;;;;;;;;;;;;24.33;45.52;100694.06;3430513;28;20001;-76
2021/07/08 01:36:42;;;;;;;;;;;;;;;24.32;45.58;100695.19;3431522;28;20032;-75
2021/07/08 01:38:22;;;;;;;;;;;;;;;24.30;45.59;100694.59;3432201;28;19930;-75
2021/07/08 01:40:06;;;;;;;;;;;;;;;24.29;45.73;100695.69;3431767;28;20416;-74
2021/07/08 01:41:47;;;;;;;;;;;;;;;24.28;45.60;100688.59;3430198;28;19926;-74
2021/07/08 01:43:27;;;;;;;;;;;;;;;24.26;45.72;100688.03;3430784;28;20749;-74
2021/07/08 01:45:08;;;;;;;;;;;;;;;24.26;45.92;100692.66;3430990;28;20456;-74
2021/07/08 01:46:49;;;;;;;;;;;;;;;24.24;45.87;100687.50;3429764;28;19949;-75
2021/07/08 01:48:29;;;;;;;;;;;;;;;24.24;45.93;100695.66;3430663;28;19926;-74
2021/07/08 01:50:14;;;;;;;;;;;;;;;24.23;45.85;100685.81;3430172;28;19933;-74
2021/07/08 01:51:54;;;;;;;;;;;;;;;24.21;45.90;100685.25;3430715;28;20041;-75
2021/07/08 01:53:35;;;;;;;;;;;;;;;24.22;45.98;100683.38;3430854;28;19981;-74
2021/07/08 01:55:15;;;;;;;;;;;;;;;24.21;45.96;100687.16;3439210;28;19930;-75
2021/07/08 01:56:56;;;;;;;;;;;;;;;24.20;46.03;100694.53;3448492;28;19914;-75
2021/07/08 01:58:36;;;;;;;;;;;;;;;24.20;45.95;100689.06;3448206;28;19910;-75
2021/07/08 02:00:17;;;;;;;;;;;;;;;24.21;45.86;100693.44;3447598;28;19948;-75
2021/07/08 02:01:58;;;;;;;;;;;;;;;24.23;45.93;100690.47;3437684;28;19980;-75
2021/07/08 02:03:38;;;;;;;;;;;;;;;24.23;45.85;100699.44;3430894;28;19926;-74
2021/07/08 02:05:21;;;;;;;;;;;;;;;24.24;45.91;100690.22;3430902;28;19933;-75
2021/07/08 02:07:02;;;;;;;;;;;;;;;24.25;45.96;100691.84;3430688;28;19961;-75
2021/07/08 02:08:43;;;;;;;;;;;;;;;24.26;45.76;100693.47;3430705;28;20393;-74
2021/07/08 02:10:23;;;;;;;;;;;;;;;24.27;45.59;100686.97;3415792;29;20005;-74
2021/07/08 02:12:04;;;;;;;;;;;;;;;24.29;45.82;100689.41;3427763;28;20415;-75
2021/07/08 02:13:45;;;;;;;;;;;;;;;24.30;45.82;100691.88;3429605;28;19926;-75
2021/07/08 02:15:25;;;;;;;;;;;;;;;24.31;45.90;100688.06;3430196;28;19930;-74
2021/07/08 02:17:06;;;;;;;;;;;;;;;24.32;45.70;100687.00;3430129;28;19933;-75
2021/07/08 02:18:47;;;;;;;;;;;;;;;24.33;45.54;100685.09;3430492;28;20433;-75
2021/07/08 02:20:27;;;;;;;;;;;;;;;24.36;45.78;100684.56;3430098;28;20404;-75
2021/07/08 02:22:08;;;;;;;;;;;;;;;24.35;45.76;100683.75;3430370;28;19926;-75
2021/07/08 02:23:48;;;;;;;;;;;;;;;24.38;45.48;100679.69;3429345;28;20412;-75
2021/07/08 02:25:29;;;;;;;;;;;;;;;24.42;45.44;100677.22;3430015;28;20025;-75
2021/07/08 02:27:09;;;;;;;;;;;;;;;24.44;45.43;100675.88;3430389;28;20529;-75
2021/07/08 02:28:50;;;;;;;;;;;;;;;24.47;45.34;100685.47;3430460;28;20381;-75
2021/07/08 02:30:31;;;;;;;;;;;;;;;24.47;45.25;100697.19;3430040;28;19926;-75
2021/07/08 02:32:11;;;;;;;;;;;;;;;24.49;45.18;100697.75;3430110;28;19930;-75
2021/07/08 02:33:52;;;;;;;;;;;;;;;24.51;45.24;100689.34;3430163;28;19953;-74
2021/07/08 02:35:32;;;;;;;;;;;;;;;24.52;45.30;100682.78;3430393;28;19926;-75
2021/07/08 02:37:13;;;;;;;;;;;;;;;24.54;44.93;100688.81;3430253;28;19999;-74
2021/07/08 02:38:54;;;;;;;;;;;;;;;24.54;45.07;100686.06;3429999;28;20028;-75
2021/07/08 02:40:35;;;;;;;;;;;;;;;24.55;45.02;100688.56;3429838;28;19933;-75
2021/07/08 02:42:15;;;;;;;;;;;;;;;24.57;44.97;100691.81;3429264;28;20439;-74
2021/07/08 02:43:56;;;;;;;;;;;;;;;24.59;45.19;100688.84;3429940;28;20017;-75
2021/07/08 02:45:38;;;;;;;;;;;;;;;24.60;44.86;100693.19;3428691;28;19926;-75
2021/07/08 02:47:18;;;;;;;;;;;;;;;24.63;44.93;100694.56;3430014;28;19926;-75
2021/07/08 02:48:59;;;;;;;;;;;;;;;24.64;44.92;100694.31;3430071;28;19926;-74
2021/07/08 02:50:42;;;;;;;;;;;;;;;24.66;44.91;100694.06;3429902;28;19961;-74
2021/07/08 02:52:23;;;;;;;;;;;;;;;24.67;44.76;100693.78;3429539;28;19926;-75
2021/07/08 02:54:03;;;;;;;;;;;;;;;24.69;44.94;100697.06;3429979;28;20414;-75
2021/07/08 02:55:44;;;;;;;;;;;;;;;24.71;44.94;100686.72;3429952;28;19922;-75
2021/07/08 02:57:26;;;;;;;;;;;;;;;24.73;44.78;100692.75;3428757;28;20507;-74
2021/07/08 02:59:07;;;;;;;;;;;;;;;24.74;44.75;100691.66;3429577;28;19993;-73
2021/07/08 03:00:48;;;;;;;;;;;;;;;24.76;44.86;100694.94;3429756;28;19933;-75
2021/07/08 03:02:28;;;;;;;;;;;;;;;24.78;44.75;100697.38;3429279;28;20012;-74
2021/07/08 03:04:09;;;;;;;;;;;;;;;24.79;44.67;100694.41;3429358;28;19935;-76
2021/07/08 03:05:49;;;;;;;;;;;;;;;24.81;44.90;100696.88;3429772;28;19926;-73
2021/07/08 03:07:30;;;;;;;;;;;;;;;24.84;44.51;100700.97;3429618;28;19918;-74
2021/07/08 03:09:10;;;;;;;;;;;;;;;24.85;44.55;100708.06;3429671;28;19926;-74
2021/07/08 03:10:51;;;;;;;;;;;;;;;24.86;44.53;100701.50;3429771;28;19922;-74
2021/07/08 03:12:31;;;;;;;;;;;;;;;24.86;44.56;100701.50;3428779;28;20020;-74
2021/07/08 03:14:12;;;;;;;;;;;;;;;24.88;44.58;100697.44;3428809;28;20357;-74
2021/07/08 03:15:53;;;;;;;;;;;;;;;24.90;44.33;100705.38;3429584;28;20423;-73
2021/07/08 03:17:33;;;;;;;;;;;;;;;24.91;44.40;100701.53;3428582;28;20290;-75
2021/07/08 03:19:14;;;;;;;;;;;;;;;24.94;44.39;100701.03;3429376;28;19932;-74
2021/07/08 03:20:54;;;;;;;;;;;;;;;24.95;44.38;100699.94;3429549;28;20069;-75
2021/07/08 03:22:35;;;;;;;;;;;;;;;24.96;44.31;100693.38;3442020;28;19926;-73
2021/07/08 03:24:15;;;;;;;;;;;;;;;24.96;44.31;100698.84;3431678;28;19925;-74
2021/07/08 03:25:56;;;;;;;;;;;;;;;24.95;44.25;100703.47;3429232;28;19926;-74
2021/07/08 03:27:36;;;;;;;;;;;;;;;24.96;44.09;100709.75;3429684;28;19926;-74
2021/07/08 03:29:17;;;;;;;;;;;;;;;24.97;44.11;100701.31;3429395;28;19929;-74
2021/07/08 03:30:57;;;;;;;;;;;;;;;24.99;44.17;100698.34;3428973;28;19926;-76
2021/07/08 03:32:38;;;;;;;;;;;;;;;25.02;43.93;100701.34;3429395;28;19953;-75
2021/07/08 03:34:19;;;;;;;;;;;;;;;25.05;43.83;100701.91;3429031;28;19926;-74
2021/07/08 03:35:59;;;;;;;;;;;;;;;25.06;43.81;100700.81;3429114;28;19925;-74
2021/07/08 03:37:40;;;;;;;;;;;;;;;25.08;43.81;100702.19;3429312;28;20392;-76
2021/07/08 03:39:21;;;;;;;;;;;;;;;25.09;43.93;100700.25;3428665;28;20074;-76
2021/07/08 03:41:01;;;;;;;;;;;;;;;25.10;43.47;100691.00;3428933;28;19926;-75
2021/07/08 03:42:42;;;;;;;;;;;;;;;25.11;43.37;100701.63;3429305;28;20274;-75
2021/07/08 03:44:23;;;;;;;;;;;;;;;25.15;43.36;100702.75;3428641;28;19980;-75
2021/07/08 03:46:03;;;;;;;;;;;;;;;25.16;43.11;100693.50;3429373;28;19926;-73
2021/07/08 03:47:44;;;;;;;;;;;;;;;25.18;43.20;100696.78;3429202;28;19933;-75
2021/07/08 03:49:25;;;;;;;;;;;;;;;25.23;42.99;100687.81;3429527;28;19926;-79
2021/07/08 03:51:05;;;;;;;;;;;;;;;25.26;43.24;100691.91;3429204;28;19964;-76
2021/07/08 03:52:46;;;;;;;;;;;;;;;25.28;43.03;100689.75;3429266;28;20401;-78
2021/07/08 03:54:26;;;;;;;;;;;;;;;25.30;43.17;100687.53;3429476;28;19930;-78
2021/07/08 03:56:07;;;;;;;;;;;;;;;25.33;43.01;100687.84;3430287;28;19933;-78
2021/07/08 03:57:54;;;;;;;;;;;;;;;25.36;42.79;100697.41;3428563;28;19948;-77
2021/07/08 03:59:34;;;;;;;;;;;;;;;25.39;42.74;100691.41;3429795;28;19933;-77
2021/07/08 04:01:15;;;;;;;;;;;;;;;25.42;42.78;100685.41;3428000;28;20479;-78
2021/07/08 04:02:57;;;;;;;;;;;;;;;25.45;42.74;100688.44;3428914;28;19926;-78
2021/07/08 04:04:38;;;;;;;;;;;;;;;25.49;42.61;100685.97;3429470;28;19930;-79
2021/07/08 04:06:19;;;;;;;;;;;;;;;25.51;42.56;100692.00;3429921;28;20401;-80
2021/07/08 04:07:59;;;;;;;;;;;;;;;25.56;42.72;100692.00;3429901;28;19972;-78
2021/07/08 04:09:41;;;;;;;;;;;;;;;25.60;42.58;100689.53;3430262;28;20412;-79
2021/07/08 04:11:22;;;;;;;;;;;;;;;25.63;42.56;100695.28;3430350;28;19926;-78
2021/07/08 04:13:06;;;;;;;;;;;;;;;25.67;42.21;100696.38;3430030;28;19926;-75
2021/07/08 04:14:46;;;;;;;;;;;;;;;25.73;42.34;100699.13;3427207;28;20389;-75
2021/07/08 04:16:27;;;;;;;;;;;;;;;25.78;42.50;100694.47;3429814;28;19965;-76
2021/07/08 04:18:08;;;;;;;;;;;;;;;25.84;42.71;100703.50;3429098;28;20282;-75
2021/07/08 04:19:49;;;;;;;;;;;;;;;25.90;43.26;100694.25;3429567;28;19926;-76
2021/07/08 04:21:29;;;;;;;;;;;;;;;25.96;43.45;100690.44;3428675;28;20009;-75
2021/07/08 04:23:11;;;;;;;;;;;;;;;26.03;43.27;100699.19;3427763;28;19933;-75
2021/07/08 04:24:51;;;;;;;;;;;;;;;26.08;43.51;100699.19;3422738;28;20309;-77
2021/07/08 04:26:32;;;;;;;;;;;;;;;26.13;43.60;100701.09;3417510;28;20386;-81
2021/07/08 04:28:12;;;;;;;;;;;;;;;26.19;43.70;100699.19;3422685;29;19926;-80
2021/07/08 04:29:53;;;;;;;;;;;;;;;26.24;43.79;100699.19;3407627;29;19926;-80
2021/07/08 04:31:35;;;;;;;;;;;;;;;26.29;43.88;100700.00;3414349;29;19949;-84
2021/07/08 04:33:17;;;;;;;;;;;;;;;26.35;43.57;100695.34;3405664;29;20385;-84
2021/07/08 04:34:57;;;;;;;;;;;;;;;26.40;43.55;100702.72;3417331;28;19926;-78
2021/07/08 04:36:38;;;;;;;;;;;;;;;26.46;43.81;100698.88;3415203;28;19934;-80
2021/07/08 04:38:18;;;;;;;;;;;;;;;26.51;43.62;100707.91;3409926;29;21070;-80
2021/07/08 04:39:59;;;;;;;;;;;;;;;26.56;43.30;100703.53;3423124;28;20024;-81
2021/07/08 04:41:39;;;;;;;;;;;;;;;26.60;43.70;100699.97;3429672;28;20022;-82
2021/07/08 04:43:20;;;;;;;;;;;;;;;26.65;43.48;100702.72;3430646;28;19932;-82
2021/07/08 04:45:01;;;;;;;;;;;;;;;26.70;43.32;100699.16;3428294;28;19933;-82
2021/07/08 04:46:42;;;;;;;;;;;;;;;26.76;43.55;100708.97;3429913;28;19926;-85
2021/07/08 04:48:23;;;;;;;;;;;;;;;26.81;43.19;100698.00;3428144;28;19926;-83
2021/07/08 04:50:05;;;;;;;;;;;;;;;26.87;43.23;100698.81;3414782;29;19977;-84
2021/07/08 04:51:45;;;;;;;;;;;;;;;26.91;43.02;100697.97;3412813;29;19926;-82
2021/07/08 04:53:26;;;;;;;;;;;;;;;26.96;43.07;100708.09;3425997;28;19977;-80
2021/07/08 04:55:07;;;;;;;;;;;;;;;27.00;43.07;100703.69;3428994;28;19948;-81
2021/07/08 04:56:47;;;;;;;;;;;;;;;27.04;42.93;100699.31;3428008;28;19933;-81
2021/07/08 04:58:28;;;;;;;;;;;;;;;27.09;43.12;100698.47;3428537;28;19930;-80
2021/07/08 05:00:09;;;;;;;;;;;;;;;27.13;42.69;100702.25;3427474;28;20385;-81
2021/07/08 05:01:50;;;;;;;;;;;;;;;27.17;42.58;100706.09;3424999;28;20024;-83
2021/07/08 05:03:30;;;;;;;;;;;;;;;27.23;42.64;100704.19;3429025;28;19953;-78
2021/07/08 05:05:12;;;;;;;;;;;;;;;27.28;42.92;100707.69;3429899;28;20393;-85
2021/07/08 05:06:52;;;;;;;;;;;;;;;27.34;43.08;100708.53;3430623;28;20020;-87
2021/07/08 05:08:33;;;;;;;;;;;;;;;27.39;42.71;100711.19;3412992;28;20386;-84
2021/07/08 05:10:14;;;;;;;;;;;;;;;27.43;42.70;100712.28;3411539;28;19926;-82
2021/07/08 05:11:55;;;;;;;;;;;;;;;27.50;42.89;100709.25;3428481;28;19926;-81
2021/07/08 05:13:35;;;;;;;;;;;;;;;27.54;42.55;100711.13;3430426;28;19926;-78
2021/07/08 05:15:16;;;;;;;;;;;;;;;27.59;42.69;100707.53;3428016;28;19933;-81
2021/07/08 05:16:57;;;;;;;;;;;;;;;27.64;42.54;100715.72;3427805;28;20074;-75
2021/07/08 05:18:37;;;;;;;;;;;;;;;27.69;42.92;100721.16;3431329;28;19930;-77
2021/07/08 05:20:17;;;;;;;;;;;;;;;27.75;42.44;100724.69;3431619;28;19961;-76
2021/07/08 05:22:00;;;;;;;;;;;;;;;27.79;42.44;100720.28;3430698;28;19933;-75
2021/07/08 05:23:41;;;;;;;;;;;;;;;27.84;42.27;100723.03;3431224;28;19981;-81
2021/07/08 05:25:21;;;;;;;;;;;;;;;27.89;41.89;100719.44;3431471;28;19973;-76
2021/07/08 05:27:02;;;;;;;;;;;;;;;27.92;41.48;100718.88;3430129;28;19933;-73
2021/07/08 05:28:42;;;;;;;;;;;;;;;27.96;41.47;100711.69;3427281;28;19926;-77
2021/07/08 05:30:23;;;;;;;;;;;;;;;28.01;40.89;100722.63;3427296;28;19933;-76
2021/07/08 05:32:04;;;;;;;;;;;;;;;28.06;40.79;100719.84;3431104;28;19926;-73
2021/07/08 05:33:44;;;;;;;;;;;;;;;28.11;40.76;100722.53;3430254;28;19969;-80
2021/07/08 05:35:25;;;;;;;;;;;;;;;28.17;40.42;100732.38;3417371;28;19933;-78
2021/07/08 05:37:05;;;;;;;;;;;;;;;28.22;40.32;100724.09;3417415;28;19926;-76
2021/07/08 05:38:46;;;;;;;;;;;;;;;28.30;40.26;100727.34;3417903;28;19950;-78
2021/07/08 05:40:26;;;;;;;;;;;;;;;28.34;39.92;100720.16;3418049;28;19926;-77
2021/07/08 05:42:07;;;;;;;;;;;;;;;28.38;39.92;100726.72;3417013;28;19926;-78
2021/07/08 05:43:48;;;;;;;;;;;;;;;28.45;39.70;100721.75;3427880;28;19965;-77
2021/07/08 05:45:28;;;;;;;;;;;;;;;28.51;39.79;100730.75;3424025;28;20297;-78
2021/07/08 05:47:09;;;;;;;;;;;;;;;28.56;39.61;100716.97;3417940;28;19926;-80
2021/07/08 05:48:49;;;;;;;;;;;;;;;28.61;39.61;100715.00;3417831;28;19933;-76
2021/07/08 05:50:30;;;;;;;;;;;;;;;28.67;39.62;100707.53;3416799;28;19927;-77
2021/07/08 05:52:10;;;;;;;;;;;;;;;28.71;39.33;100714.06;3418067;28;19933;-78
2021/07/08 05:53:53;;;;;;;;;;;;;;;28.77;39.18;100714.84;3423514;28;20444;-77
2021/07/08 05:55:33;;;;;;;;;;;;;;;28.81;39.22;100713.97;3431143;28;19926;-75
2021/07/08 05:57:14;;;;;;;;;;;;;;;28.88;38.69;100719.09;3431026;28;19926;-77
2021/07/08 05:58:54;;;;;;;;;;;;;;;28.94;39.15;100717.94;3431070;28;20281;-75
2021/07/08 06:00:35;;;;;;;;;;;;;;;28.98;38.53;100713.47;3430838;28;19926;-76
2021/07/08 06:02:16;;;;;;;;;;;;;;;29.04;38.86;100723.31;3430627;28;19926;-75
2021/07/08 06:03:56;;;;;;;;;;;;;;;29.07;38.71;100711.78;3430184;28;19930;-74
2021/07/08 06:05:37;;;;;;;;;;;;;;;29.09;38.66;100719.69;3430783;28;19926;-74
2021/07/08 06:07:17;;;;;;;;;;;;;;;29.08;38.41;100716.13;3430909;28;19926;-75
2021/07/08 06:08:58;;;;;;;;;;;;;;;29.08;38.57;100713.38;3430815;28;19926;-74
2021/07/08 06:10:41;;;;;;;;;;;;;;;29.11;37.93;100712.78;3430816;28;19981;-75
2021/07/08 06:12:22;;;;;;;;;;;;;;;29.16;37.87;100714.66;3430670;28;19925;-75
2021/07/08 06:14:03;;;;;;;;;;;;;;;29.22;38.21;100708.00;3430568;28;20364;-75
2021/07/08 06:15:43;;;;;;;;;;;;;;;29.28;37.96;100709.56;3430239;28;19930;-74
2021/07/08 06:17:24;;;;;;;;;;;;;;;29.34;37.75;100713.06;3429532;28;19931;-75
2021/07/08 06:19:04;;;;;;;;;;;;;;;29.39;37.80;100707.50;3430063;28;19934;-75
2021/07/08 06:20:46;;;;;;;;;;;;;;;29.46;37.85;100718.94;3429340;28;19926;-73
2021/07/08 06:22:27;;;;;;;;;;;;;;;29.52;37.49;100715.00;3430236;28;19981;-74
2021/07/08 06:24:08;;;;;;;;;;;;;;;29.60;37.71;100712.72;3430415;28;19926;-75
2021/07/08 06:25:49;;;;;;;;;;;;;;;29.66;37.19;100706.88;3430334;28;20029;-74
2021/07/08 06:27:29;;;;;;;;;;;;;;;29.71;36.96;100708.72;3430221;28;19922;-73
2021/07/08 06:29:10;;;;;;;;;;;;;;;29.78;37.04;100706.41;3429570;28;20393;-75
2021/07/08 06:30:51;;;;;;;;;;;;;;;29.86;36.86;100715.91;3429425;28;20404;-73
2021/07/08 06:32:32;;;;;;;;;;;;;;;29.96;36.63;100713.81;3426709;28;19930;-75
2021/07/08 06:34:12;;;;;;;;;;;;;;;30.07;36.46;100705.41;3430423;28;19930;-75
2021/07/08 06:35:53;;;;;;;;;;;;;;;30.19;36.77;100701.06;3430055;28;19922;-74
2021/07/08 06:37:34;;;;;;;;;;;;;;;30.34;36.49;100699.22;3430028;28;19933;-75
2021/07/08 06:39:14;;;;;;;;;;;;;;;30.48;36.46;100705.53;3431102;28;19926;-75
2021/07/08 06:40:55;;;;;;;;;;;;;;;30.62;36.02;100706.38;3430227;28;19973;-75
2021/07/08 06:42:36;;;;;;;;;;;;;;;30.76;35.81;100703.63;3430193;28;20032;-75
2021/07/08 06:44:17;;;;;;;;;;;;;;;30.93;35.69;100705.81;3429731;28;19933;-75
2021/07/08 06:45:57;;;;;;;;;;;;;;;31.08;35.47;100707.41;3430532;28;19926;-74
2021/07/08 06:47:42;;;;;;;;;;;;;;;31.22;35.51;100708.22;3430303;28;20429;-75
2021/07/08 06:49:22;;;;;;;;;;;;;;;31.35;34.93;100716.78;3428429;28;20321;-73
2021/07/08 06:51:03;;;;;;;;;;;;;;;31.44;34.93;100709.44;3429285;28;19962;-74
2021/07/08 06:52:44;;;;;;;;;;;;;;;31.54;34.89;100714.72;3430029;28;19925;-73
2021/07/08 06:54:24;;;;;;;;;;;;;;;31.67;34.64;100722.13;3429321;28;19926;-75
2021/07/08 06:56:05;;;;;;;;;;;;;;;31.79;34.98;100721.59;3429872;28;20305;-73
2021/07/08 06:57:51;;;;;;;;;;;;;;;31.90;34.29;100716.63;3428566;28;19980;-75
2021/07/08 06:59:32;;;;;;;;;;;;;;;31.98;34.46;100718.69;3429907;28;20328;-75
2021/07/08 07:01:13;;;;;;;;;;;;;;;32.05;34.04;100719.06;3431063;28;19926;-75
2021/07/08 07:02:54;;;;;;;;;;;;;;;32.14;34.08;100722.69;3429879;28;19925;-76
2021/07/08 07:04:34;;;;;;;;;;;;;;;32.22;33.94;100710.09;3430202;28;19949;-74
2021/07/08 07:06:15;;;;;;;;;;;;;;;32.32;33.62;100717.25;3429929;28;20029;-74
2021/07/08 07:07:56;;;;;;;;;;;;;;;32.41;33.52;100709.88;3429989;28;19926;-75
2021/07/08 07:09:36;;;;;;;;;;;;;;;32.52;33.29;100721.47;3428762;28;19935;-74
2021/07/08 07:11:17;;;;;;;;;;;;;;;32.63;33.29;100716.47;3429397;28;19973;-76
2021/07/08 07:12:58;;;;;;;;;;;;;;;32.74;33.01;100723.38;3420546;28;19926;-75
2021/07/08 07:14:39;;;;;;;;;;;;;;;32.84;32.59;100719.50;3415979;28;20342;-75
2021/07/08 07:16:19;;;;;;;;;;;;;;;32.94;32.72;100722.81;3416114;28;19934;-75
2021/07/08 07:18:04;;;;;;;;;;;;;;;33.05;32.50;100715.06;3416612;28;19981;-75
2021/07/08 07:19:44;;;;;;;;;;;;;;;33.17;32.59;100718.03;3416063;28;19933;-77
2021/07/08 07:21:28;;;;;;;;;;;;;;;33.30;32.15;100719.00;3415194;29;19931;-75
2021/07/08 07:23:08;;;;;;;;;;;;;;;33.40;31.98;100718.69;3416078;29;19961;-75
2021/07/08 07:24:52;;;;;;;;;;;;;;;33.53;32.21;100716.09;3416260;28;20020;-75
2021/07/08 07:26:32;;;;;;;;;;;;;;;33.64;32.10;100721.03;3412195;28;19986;-76
2021/07/08 07:28:13;;;;;;;;;;;;;;;33.66;31.53;100713.22;3415137;28;20460;-76
2021/07/08 07:29:56;;;;;;;;;;;;;;;33.61;31.49;100718.09;3414550;28;19926;-74
2021/07/08 07:31:37;;;;;;;;;;;;;;;33.54;31.09;100723.28;3414715;28;19926;-76
2021/07/08 07:33:18;;;;;;;;;;;;;;;33.50;31.34;100717.56;3415216;28;20028;-75
2021/07/08 07:35:01;;;;;;;;;;;;;;;33.54;31.43;100717.75;3414709;28;19984;-78
2021/07/08 07:36:43;;;;;;;;;;;;;;;33.61;31.59;100718.09;3414919;28;19926;-77
2021/07/08 07:38:24;;;;;;;;;;;;;;;33.73;31.01;100718.25;3414719;28;19926;-76
2021/07/08 07:40:05;;;;;;;;;;;;;;;33.89;31.53;100722.13;3414246;28;19930;-75
2021/07/08 07:41:45;;;;;;;;;;;;;;;34.00;31.03;100719.03;3400311;29;20346;-75
2021/07/08 07:43:26;;;;;;;;;;;;;;;34.11;30.36;100714.84;3411338;29;19930;-75
2021/07/08 07:45:07;;;;;;;;;;;;;;;34.24;30.25;100718.56;3414411;28;19949;-75
2021/07/08 07:46:49;;;;;;;;;;;;;;;34.38;30.37;100715.59;3414138;28;19926;-74
2021/07/08 07:48:30;;;;;;;;;;;;;;;34.45;30.17;100721.44;3413476;29;20033;-76
2021/07/08 07:50:11;;;;;;;;;;;;;;;34.51;30.11;100717.31;3413935;28;19933;-73
2021/07/08 07:51:51;;;;;;;;;;;;;;;34.62;30.08;100713.09;3414527;28;20408;-74
2021/07/08 07:53:32;;;;;;;;;;;;;;;34.77;29.70;100716.44;3415039;28;19933;-74
2021/07/08 07:55:17;;;;;;;;;;;;;;;34.91;29.64;100715.06;3414814;28;20391;-75
2021/07/08 07:57:01;;;;;;;;;;;;;;;35.03;29.80;100719.88;3417648;28;19926;-75
2021/07/08 07:58:43;;;;;;;;;;;;;;;35.15;29.95;100711.69;3413003;29;20477;-75
2021/07/08 08:00:25;;;;;;;;;;;;;;;35.28;29.07;100711.78;3413597;28;19926;-74
2021/07/08 08:02:13;;;;;;;;;;;;;;;35.42;29.57;100706.81;3412447;28;19926;-74
2021/07/08 08:03:56;;;;;;;;;;;;;;;35.53;29.25;100708.00;3415451;28;19926;-75
2021/07/08 08:05:40;;;;;;;;;;;;;;;35.66;29.17;100710.88;3414807;28;19930;-73
2021/07/08 08:09:34;;;;;;;;;;;;;;;36.01;28.40;100722.47;3400636;29;19951;-73
2021/07/08 08:11:14;;;;;;;;;;;;;;;36.13;28.44;100714.22;3403261;28;19925;-73
2021/07/08 08:12:55;;;;;;;;;;;;;;;36.28;28.23;100717.50;3417849;28;19926;-74
2021/07/08 08:14:36;;;;;;;;;;;;;;;36.40;28.25;100714.72;3414698;28;20282;-74
2021/07/08 08:16:17;;;;;;;;;;;;;;;36.51;28.00;100717.88;3414430;28;20416;-74
2021/07/08 08:18:01;;;;;;;;;;;;;;;36.62;28.06;100719.06;3413474;28;20413;-75
2021/07/08 08:19:42;;;;;;;;;;;;;;;36.74;27.67;100709.91;3413848;28;19926;-73
2021/07/08 08:21:23;;;;;;;;;;;;;;;36.85;27.76;100711.09;3411872;28;20033;-73
2021/07/08 08:23:03;;;;;;;;;;;;;;;36.96;27.48;100711.44;3413768;28;20346;-75
2021/07/08 08:24:44;;;;;;;;;;;;;;;37.05;27.10;100712.97;3414035;28;19922;-74
2021/07/08 08:26:26;;;;;;;;;;;;;;;37.11;27.29;100707.97;3414626;28;19926;-74
2021/07/08 08:28:09;;;;;;;;;;;;;;;37.18;27.20;100707.41;3413366;28;20376;-75
2021/07/08 08:29:50;;;;;;;;;;;;;;;37.17;27.35;100712.13;3413830;28;19926;-75
2021/07/08 08:31:35;;;;;;;;;;;;;;;37.16;27.07;100716.09;3414275;28;19926;-75
2021/07/08 08:33:15;;;;;;;;;;;;;;;37.16;26.75;100709.72;3414428;28;19926;-74
2021/07/08 08:34:56;;;;;;;;;;;;;;;37.20;26.92;100705.06;3413322;28;19926;-74
2021/07/08 08:36:37;;;;;;;;;;;;;;;37.25;26.53;100708.44;3413957;28;19996;-75
2021/07/08 08:38:19;;;;;;;;;;;;;;;37.38;25.90;100711.16;3413693;28;19926;-73
2021/07/08 08:40:01;;;;;;;;;;;;;;;37.46;26.51;100696.31;3414561;28;19926;-75